createdAt,value
2023-01-09T00:01:28.711Z,9.90
2023-01-09T00:03:59.121Z,9.92
2023-01-09T00:06:26.699Z,9.93
2023-01-09T00:08:54.155Z,9.93
2023-01-09T00:11:24.273Z,9.90
2023-01-09T00:13:51.379Z,9.92
2023-01-09T00:16:18.721Z,9.92
2023-01-09T00:18:46.089Z,9.90
2023-01-09T00:21:20.166Z,9.90
2023-01-09T00:23:47.658Z,9.87
2023-01-09T00:26:24.143Z,9.85
2023-01-09T00:32:49.614Z,9.89
2023-01-09T00:38:24.797Z,9.92
2023-01-09T00:41:14.676Z,9.94
2023-01-09T00:47:05.109Z,9.96
2023-01-09T00:49:35.016Z,9.97
2023-01-09T00:52:22.221Z,9.99
2023-01-09T00:54:56.990Z,9.97
2023-01-09T00:57:27.327Z,9.97
2023-01-09T01:00:00.802Z,9.97
2023-01-09T01:06:13.550Z,9.97
2023-01-09T01:08:52.703Z,9.96
2023-01-09T01:11:35.115Z,9.96
2023-01-09T01:14:02.856Z,9.97
2023-01-09T01:16:33.093Z,9.97
2023-01-09T01:19:37.305Z,9.99
2023-01-09T01:22:27.475Z,9.98
2023-01-09T01:24:55.155Z,9.96
2023-01-09T01:27:22.512Z,9.95
2023-01-09T01:30:10.769Z,9.95
2023-01-09T01:35:22.377Z,9.86
2023-01-09T01:37:50.345Z,9.85
2023-01-09T01:40:52.205Z,9.79
2023-01-09T01:43:19.877Z,9.78
2023-01-09T01:45:50.029Z,9.81
2023-01-09T01:48:37.308Z,9.79
2023-01-09T01:51:16.944Z,9.77
2023-01-09T01:53:56.816Z,9.71
2023-01-09T01:56:28.254Z,9.69
2023-01-09T01:59:47.108Z,9.68
2023-01-09T02:02:14.311Z,9.65
2023-01-09T02:08:00.463Z,9.59
2023-01-09T02:10:28.163Z,9.58
2023-01-09T02:13:05.456Z,9.56
2023-01-09T02:15:48.889Z,9.55
2023-01-09T02:18:24.943Z,9.53
2023-01-09T02:20:56.492Z,9.54
2023-01-09T02:23:33.181Z,9.57
2023-01-09T02:26:10.874Z,9.60
2023-01-09T02:28:51.749Z,9.63
2023-01-09T02:31:25.396Z,9.61
2023-01-09T02:34:00.496Z,9.62
2023-01-09T02:39:40.163Z,9.54
2023-01-09T02:42:17.357Z,9.48
2023-01-09T02:44:47.672Z,9.46
2023-01-09T02:47:15.963Z,9.45
2023-01-09T02:49:53.659Z,9.43
2023-01-09T02:55:19.093Z,9.34
2023-01-09T02:57:55.967Z,9.31
2023-01-09T03:00:32.557Z,9.28
2023-01-09T03:03:08.261Z,9.29
2023-01-09T03:05:44.982Z,9.27
2023-01-09T03:08:29.635Z,9.21
2023-01-09T03:11:00.981Z,9.16
2023-01-09T03:13:35.001Z,9.14
2023-01-09T03:16:04.768Z,9.10
2023-01-09T03:18:38.927Z,9.08
2023-01-09T03:21:07.622Z,9.07
2023-01-09T03:23:45.217Z,9.06
2023-01-09T03:26:12.347Z,9.09
2023-01-09T03:28:42.499Z,9.09
2023-01-09T03:31:18.939Z,9.08
2023-01-09T03:33:46.013Z,9.09
2023-01-09T03:39:49.835Z,9.03
2023-01-09T03:42:35.184Z,8.99
2023-01-09T03:45:02.322Z,8.97
2023-01-09T03:47:29.840Z,8.96
2023-01-09T03:49:57.088Z,8.96
2023-01-09T03:52:24.349Z,8.93
2023-01-09T03:54:51.401Z,8.90
2023-01-09T03:57:18.748Z,8.90
2023-01-09T03:59:46.363Z,8.91
2023-01-09T04:02:16.708Z,8.91
2023-01-09T04:04:47.169Z,8.88
2023-01-09T04:07:17.732Z,8.83
2023-01-09T04:09:45.263Z,8.83
2023-01-09T04:12:15.045Z,8.84
2023-01-09T04:14:42.373Z,8.80
2023-01-09T04:17:18.600Z,8.76
2023-01-09T04:19:51.598Z,8.76
2023-01-09T04:22:23.405Z,8.76
2023-01-09T04:24:52.042Z,8.74
2023-01-09T04:27:20.833Z,8.74
2023-01-09T04:29:48.185Z,8.71
2023-01-09T04:32:15.558Z,8.70
2023-01-09T04:34:49.673Z,8.71
2023-01-09T04:37:20.493Z,8.72
2023-01-09T04:39:50.415Z,8.72
2023-01-09T04:42:17.700Z,8.71
2023-01-09T04:44:47.280Z,8.72
2023-01-09T04:47:17.553Z,8.71
2023-01-09T04:50:07.810Z,8.73
2023-01-09T04:55:28.931Z,8.76
2023-01-09T04:57:56.265Z,8.77
2023-01-09T05:00:26.291Z,8.78
2023-01-09T05:03:05.323Z,8.78
2023-01-09T05:05:41.936Z,8.77
2023-01-09T05:08:09.298Z,8.75
2023-01-09T05:10:36.607Z,8.75
2023-01-09T05:13:03.775Z,8.75
2023-01-09T05:15:51.309Z,8.75
2023-01-09T05:18:18.562Z,8.74
2023-01-09T05:21:06.259Z,8.74
2023-01-09T05:23:33.346Z,8.75
2023-01-09T05:26:15.860Z,8.73
2023-01-09T05:28:43.010Z,8.71
2023-01-09T05:31:10.043Z,8.70
2023-01-09T05:33:37.216Z,8.70
2023-01-09T05:36:04.464Z,8.68
2023-01-09T05:38:35.015Z,8.66
2023-01-09T05:41:05.118Z,8.66
2023-01-09T05:43:34.831Z,8.62
2023-01-09T05:46:04.589Z,8.60
2023-01-09T05:48:37.015Z,8.60
2023-01-09T05:51:04.678Z,8.59
2023-01-09T05:53:39.429Z,8.59
2023-01-09T05:56:06.575Z,8.61
2023-01-09T05:58:33.729Z,8.61
2023-01-09T06:01:31.958Z,8.63
2023-01-09T06:03:59.160Z,8.59
2023-01-09T06:06:26.473Z,8.61
2023-01-09T06:09:01.958Z,8.57
2023-01-09T06:11:29.225Z,8.58
2023-01-09T06:13:56.464Z,8.59
2023-01-09T06:16:24.089Z,8.57
2023-01-09T06:18:51.670Z,8.58
2023-01-09T06:21:21.307Z,8.56
2023-01-09T06:23:48.758Z,8.54
2023-01-09T06:26:15.789Z,8.50
2023-01-09T06:28:45.426Z,8.51
2023-01-09T06:31:13.656Z,8.52
2023-01-09T06:33:41.174Z,8.54
2023-01-09T06:36:09.034Z,8.55
2023-01-09T06:38:36.381Z,8.55
2023-01-09T06:41:03.540Z,8.56
2023-01-09T06:43:30.685Z,8.62
2023-01-09T06:46:01.143Z,8.63
2023-01-09T06:48:28.413Z,8.64
2023-01-09T06:50:55.807Z,8.64
2023-01-09T06:53:22.894Z,8.60
2023-01-09T06:55:54.001Z,8.63
2023-01-09T06:58:29.385Z,8.58
2023-01-09T07:01:09.627Z,8.64
2023-01-09T07:03:39.723Z,8.65
2023-01-09T07:06:07.984Z,8.65
2023-01-09T07:11:16.679Z,8.66
2023-01-09T07:13:46.295Z,8.68
2023-01-09T07:16:19.527Z,8.69
2023-01-09T07:18:46.633Z,8.70
2023-01-09T07:21:13.682Z,8.69
2023-01-09T07:23:40.939Z,8.68
2023-01-09T07:26:37.520Z,8.67
2023-01-09T07:29:04.434Z,8.65
2023-01-09T07:31:31.831Z,8.66
2023-01-09T07:34:01.593Z,8.69
2023-01-09T07:36:28.848Z,8.70
2023-01-09T07:38:55.900Z,8.69
2023-01-09T07:41:23.042Z,8.71
2023-01-09T07:43:50.107Z,8.68
2023-01-09T07:46:17.515Z,8.66
2023-01-09T07:48:44.523Z,8.66
2023-01-09T07:51:11.565Z,8.66
2023-01-09T07:53:38.400Z,8.66
2023-01-09T07:56:08.020Z,8.67
2023-01-09T07:58:35.534Z,8.66
2023-01-09T08:01:25.932Z,8.64
2023-01-09T08:03:57.024Z,8.63
2023-01-09T08:06:44.464Z,8.63
2023-01-09T08:09:11.724Z,8.56
2023-01-09T08:11:42.139Z,8.55
2023-01-09T08:14:12.344Z,8.54
2023-01-09T08:16:40.842Z,8.55
2023-01-09T08:19:08.075Z,8.51
2023-01-09T08:21:41.566Z,8.51
2023-01-09T08:24:09.894Z,8.51
2023-01-09T08:26:45.902Z,8.50
2023-01-09T08:29:13.913Z,8.52
2023-01-09T08:31:50.206Z,8.50
2023-01-09T08:34:29.179Z,8.52
2023-01-09T08:36:56.674Z,8.52
2023-01-09T08:39:28.231Z,8.51
2023-01-09T08:42:16.029Z,8.53
2023-01-09T08:44:52.631Z,8.56
2023-01-09T08:47:21.729Z,8.65
2023-01-09T08:49:50.395Z,8.69
2023-01-09T08:52:17.711Z,8.69
2023-01-09T08:54:49.250Z,8.75
2023-01-09T08:57:16.691Z,8.79
2023-01-09T08:59:46.700Z,8.84
2023-01-09T09:02:15.089Z,8.90
2023-01-09T09:04:43.159Z,8.93
2023-01-09T09:07:10.379Z,8.94
2023-01-09T09:09:37.885Z,8.97
2023-01-09T09:12:06.891Z,8.96
2023-01-09T09:14:43.757Z,8.97
2023-01-09T09:17:11.102Z,9.16
2023-01-09T09:19:40.117Z,9.26
2023-01-09T09:22:10.124Z,9.26
2023-01-09T09:24:37.389Z,9.25
2023-01-09T09:27:08.080Z,9.29
2023-01-09T09:29:35.796Z,9.32
2023-01-09T09:32:03.352Z,9.38
2023-01-09T09:34:30.707Z,9.47
2023-01-09T09:37:02.757Z,9.54
2023-01-09T09:39:30.231Z,9.60
2023-01-09T09:42:00.884Z,9.63
2023-01-09T09:44:34.467Z,9.62
2023-01-09T09:47:07.160Z,9.64
2023-01-09T09:49:50.383Z,9.72
2023-01-09T09:52:23.507Z,9.78
2023-01-09T09:54:52.491Z,9.84
2023-01-09T09:57:24.277Z,9.93
2023-01-09T09:59:53.125Z,9.99
2023-01-09T10:02:25.367Z,10.05
2023-01-09T10:05:00.323Z,10.07
2023-01-09T10:07:33.844Z,10.08
2023-01-09T10:10:05.797Z,10.13
2023-01-09T10:12:36.518Z,10.16
2023-01-09T10:15:08.164Z,10.17
2023-01-09T10:17:38.543Z,10.20
2023-01-09T10:20:10.866Z,10.19
2023-01-09T10:22:41.746Z,10.19
2023-01-09T10:25:10.028Z,10.19
2023-01-09T10:27:40.621Z,10.18
2023-01-09T10:30:25.961Z,10.13
2023-01-09T10:36:05.072Z,10.19
2023-01-09T10:38:41.036Z,10.21
2023-01-09T10:41:11.257Z,10.23
2023-01-09T10:43:41.701Z,10.29
2023-01-09T10:46:20.864Z,10.32
2023-01-09T10:49:13.346Z,10.33
2023-01-09T10:51:48.622Z,10.32
2023-01-09T10:57:24.393Z,10.36
2023-01-09T10:59:52.876Z,10.36
2023-01-09T11:02:23.324Z,10.43
2023-01-09T11:05:04.883Z,10.49
2023-01-09T11:07:36.864Z,10.48
2023-01-09T11:10:08.152Z,10.49
2023-01-09T11:12:42.711Z,10.51
2023-01-09T11:17:54.244Z,10.53
2023-01-09T11:20:21.710Z,10.50
2023-01-09T11:22:53.665Z,10.52
2023-01-09T11:25:58.408Z,10.52
2023-01-09T11:28:17.757Z,10.53
2023-01-09T11:30:48.320Z,10.50
2023-01-09T11:33:16.675Z,10.55
2023-01-09T11:35:47.112Z,10.58
2023-01-09T11:38:20.119Z,10.56
2023-01-09T11:41:01.594Z,10.58
2023-01-09T11:43:34.895Z,10.57
2023-01-09T11:46:06.971Z,10.63
2023-01-09T11:48:36.159Z,10.67
2023-01-09T11:51:05.586Z,10.74
2023-01-09T11:53:37.726Z,10.73
2023-01-09T11:56:05.780Z,10.79
2023-01-09T11:58:53.124Z,10.83
2023-01-09T12:01:34.677Z,10.90
2023-01-09T12:04:30.026Z,10.98
2023-01-09T12:07:03.923Z,11.03
2023-01-09T12:10:03.868Z,11.07
2023-01-09T12:12:34.166Z,11.13
2023-01-09T12:15:06.559Z,11.21
2023-01-09T12:17:46.917Z,11.26
2023-01-09T12:20:23.813Z,11.31
2023-01-09T12:22:51.761Z,11.37
2023-01-09T12:25:29.758Z,11.36
2023-01-09T12:28:00.192Z,11.41
2023-01-09T12:30:32.172Z,11.44
2023-01-09T12:42:18.152Z,11.57
2023-01-09T12:43:50.537Z,11.63
2023-01-09T12:47:04.386Z,11.64
2023-01-09T12:49:50.544Z,11.72
2023-01-09T12:52:25.289Z,11.78
2023-01-09T12:55:49.263Z,11.82
2023-01-09T12:59:01.088Z,11.84
2023-01-09T13:02:15.805Z,11.84
2023-01-09T13:08:24.751Z,11.72
2023-01-09T13:09:26.644Z,11.76
2023-01-09T13:11:14.855Z,11.71
2023-01-09T13:14:02.123Z,11.68
2023-01-09T13:16:32.769Z,11.65
2023-01-09T13:19:31.814Z,11.63
2023-01-09T13:22:25.935Z,11.59
2023-01-09T13:25:12.548Z,11.52
2023-01-09T13:28:12.059Z,11.42
2023-01-09T13:30:58.624Z,11.34
2023-01-09T13:33:34.700Z,11.38
2023-01-09T13:36:08.723Z,11.43
2023-01-09T13:38:39.263Z,11.51
2023-01-09T13:41:45.670Z,11.49
2023-01-09T13:44:22.313Z,11.53
2023-01-09T13:47:09.542Z,11.57
2023-01-09T13:50:11.989Z,11.55
2023-01-09T13:53:11.468Z,11.54
2023-01-09T13:55:38.973Z,11.54
2023-01-09T14:01:09.840Z,11.58
2023-01-09T14:03:41.494Z,11.65
2023-01-09T14:06:32.730Z,11.68
2023-01-09T14:09:30.149Z,11.70
2023-01-09T14:12:04.092Z,11.67
2023-01-09T14:14:33.909Z,11.67
2023-01-09T14:17:26.919Z,11.65
2023-01-09T14:20:05.784Z,11.59
2023-01-09T14:23:05.231Z,11.60
2023-01-09T14:25:33.868Z,11.60
2023-01-09T14:28:13.124Z,11.58
2023-01-09T14:34:31.129Z,11.54
2023-01-09T14:37:01.978Z,11.46
2023-01-09T14:39:36.149Z,11.42
2023-01-09T14:42:13.639Z,11.37
2023-01-09T14:44:44.162Z,11.31
2023-01-09T14:47:29.276Z,11.25
2023-01-09T14:53:10.692Z,11.09
2023-01-09T14:55:59.132Z,11.05
2023-01-09T14:58:28.302Z,10.99
2023-01-09T15:01:18.013Z,10.96
2023-01-09T15:06:48.348Z,10.94
2023-01-09T15:12:34.763Z,10.94
2023-01-09T15:15:33.983Z,10.91
2023-01-09T15:18:05.562Z,10.83
2023-01-09T15:21:07.399Z,10.80
2023-01-09T15:23:43.763Z,10.65
2023-01-09T15:26:32.505Z,10.59
2023-01-09T15:29:16.169Z,10.56
2023-01-09T15:31:52.878Z,10.52
2023-01-09T15:34:23.869Z,10.48
2023-01-09T15:37:02.528Z,10.46
2023-01-09T15:40:10.412Z,10.46
2023-01-09T15:42:58.953Z,10.43
2023-01-09T15:45:43.847Z,10.38
2023-01-09T15:48:24.786Z,10.36
2023-01-09T15:51:12.129Z,10.35
2023-01-09T15:53:41.445Z,10.32
2023-01-09T15:56:15.562Z,10.32
2023-01-09T15:59:36.067Z,10.30
2023-01-09T16:05:18.084Z,10.22
2023-01-09T16:08:01.763Z,10.17
2023-01-09T16:10:39.873Z,10.15
2023-01-09T16:13:07.178Z,10.11
2023-01-09T16:15:37.629Z,10.10
2023-01-09T16:18:25.769Z,10.10
2023-01-09T16:21:04.165Z,10.05
2023-01-09T16:23:31.631Z,10.03
2023-01-09T16:26:09.642Z,10.00
2023-01-09T16:28:41.515Z,9.97
2023-01-09T16:31:16.538Z,9.94
2023-01-09T16:34:13.167Z,9.94
2023-01-09T16:36:40.786Z,9.94
2023-01-09T16:39:14.468Z,9.95
2023-01-09T16:41:56.752Z,9.94
2023-01-09T16:44:24.383Z,9.94
2023-01-09T16:46:51.881Z,9.96
2023-01-09T16:49:21.084Z,10.00
2023-01-09T16:51:48.860Z,10.01
2023-01-09T16:54:16.833Z,10.03
2023-01-09T16:56:45.922Z,10.04
2023-01-09T16:59:14.909Z,10.05
2023-01-09T17:01:45.543Z,10.06
2023-01-09T17:04:13.583Z,10.03
2023-01-09T17:06:41.793Z,10.00
2023-01-09T17:09:12.843Z,9.96
2023-01-09T17:11:41.985Z,9.97
2023-01-09T17:14:11.202Z,9.98
2023-01-09T17:16:38.665Z,10.00
2023-01-09T17:19:06.167Z,10.00
2023-01-09T17:21:33.644Z,10.00
2023-01-09T17:24:44.907Z,10.01
2023-01-09T17:27:21.679Z,10.01
2023-01-09T17:29:56.985Z,10.03
2023-01-09T17:35:16.627Z,10.04
2023-01-09T17:37:44.399Z,10.03
2023-01-09T17:40:25.990Z,10.01
2023-01-09T17:42:56.623Z,9.97
2023-01-09T17:45:24.066Z,9.95
2023-01-09T17:51:00.158Z,9.84
2023-01-09T17:53:30.423Z,9.79
2023-01-09T17:55:57.942Z,9.74
2023-01-09T17:58:26.887Z,9.73
2023-01-09T18:01:01.931Z,9.74
2023-01-09T18:03:33.943Z,9.73
2023-01-09T18:06:01.507Z,9.68
2023-01-09T18:11:14.561Z,9.66
2023-01-09T18:13:41.991Z,9.64
2023-01-09T18:16:12.718Z,9.62
2023-01-09T18:18:40.712Z,9.62
2023-01-09T18:21:12.479Z,9.61
2023-01-09T18:23:39.627Z,9.60
2023-01-09T18:26:10.979Z,9.57
2023-01-09T18:28:39.285Z,9.56
2023-01-09T18:31:07.139Z,9.55
2023-01-09T18:33:34.681Z,9.55
2023-01-09T18:36:10.251Z,9.53
2023-01-09T18:38:37.901Z,9.50
2023-01-09T18:41:07.406Z,9.47
2023-01-09T18:43:34.862Z,9.45
2023-01-09T18:46:08.240Z,9.44
2023-01-09T18:48:35.166Z,9.44
2023-01-09T18:51:02.928Z,9.45
2023-01-09T18:53:29.949Z,9.43
2023-01-09T18:55:56.764Z,9.43
2023-01-09T18:58:23.672Z,9.43
2023-01-09T19:00:51.776Z,9.43
2023-01-09T19:03:18.770Z,9.41
2023-01-09T19:05:45.592Z,9.38
2023-01-09T19:08:13.608Z,9.38
2023-01-09T19:10:40.457Z,9.35
2023-01-09T19:13:07.300Z,9.34
2023-01-09T19:15:35.066Z,9.31
2023-01-09T19:18:01.865Z,9.34
2023-01-09T19:20:29.948Z,9.34
2023-01-09T19:22:57.184Z,9.33
2023-01-09T19:25:24.110Z,9.34
2023-01-09T19:27:51.030Z,9.33
2023-01-09T19:30:18.798Z,9.30
2023-01-09T19:32:45.568Z,9.29
2023-01-09T19:35:12.507Z,9.27
2023-01-09T19:37:39.342Z,9.25
2023-01-09T19:40:06.577Z,9.24
2023-01-09T19:42:33.364Z,9.23
2023-01-09T19:45:00.180Z,9.22
2023-01-09T19:47:26.970Z,9.21
2023-01-09T19:49:53.828Z,9.19
2023-01-09T19:52:20.666Z,9.18
2023-01-09T19:54:48.007Z,9.17
2023-01-09T19:57:14.801Z,9.18
2023-01-09T19:59:43.595Z,9.17
2023-01-09T20:02:11.525Z,9.17
2023-01-09T20:04:38.420Z,9.15
2023-01-09T20:07:05.454Z,9.15
2023-01-09T20:09:34.168Z,9.12
2023-01-09T20:12:02.267Z,9.11
2023-01-09T20:14:30.008Z,9.09
2023-01-09T20:17:01.107Z,9.07
2023-01-09T20:19:30.302Z,9.05
2023-01-09T20:21:57.074Z,9.05
2023-01-09T20:24:23.828Z,9.04
2023-01-09T20:26:51.409Z,9.04
2023-01-09T20:29:18.441Z,9.02
2023-01-09T20:31:45.403Z,9.00
2023-01-09T20:34:13.276Z,8.99
2023-01-09T20:36:40.207Z,8.93
2023-01-09T20:39:08.059Z,8.91
2023-01-09T20:41:34.927Z,8.87
2023-01-09T20:44:03.117Z,8.86
2023-01-09T20:46:30.951Z,8.85
2023-01-09T20:48:58.612Z,8.84
2023-01-09T20:51:25.827Z,8.86
2023-01-09T20:53:56.019Z,8.86
2023-01-09T20:56:23.824Z,8.86
2023-01-09T20:58:50.717Z,8.87
2023-01-09T21:01:17.707Z,8.84
2023-01-09T21:03:44.616Z,8.82
2023-01-09T21:06:12.905Z,8.79
2023-01-09T21:08:40.386Z,8.75
2023-01-09T21:11:07.143Z,8.70
2023-01-09T21:13:33.891Z,8.69
2023-01-09T21:16:02.719Z,8.66
2023-01-09T21:18:31.138Z,8.59
2023-01-09T21:20:58.105Z,8.58
2023-01-09T21:23:24.928Z,8.62
2023-01-09T21:25:51.713Z,8.57
2023-01-09T21:28:19.707Z,8.57
2023-01-09T21:30:49.908Z,8.56
2023-01-09T21:33:20.803Z,8.57
2023-01-09T21:35:56.536Z,8.61
2023-01-09T21:38:24.006Z,8.58
2023-01-09T21:40:51.701Z,8.53
2023-01-09T21:43:36.518Z,8.51
2023-01-09T21:46:13.388Z,8.54
2023-01-09T21:48:40.201Z,8.51
2023-01-09T21:51:07.437Z,8.51
2023-01-09T21:53:34.221Z,8.53
2023-01-09T21:56:02.716Z,8.50
2023-01-09T21:58:29.487Z,8.50
2023-01-09T22:00:57.297Z,8.50
2023-01-09T22:03:24.142Z,8.48
2023-01-09T22:05:50.923Z,8.46
2023-01-09T22:08:17.673Z,8.48
2023-01-09T22:10:44.438Z,8.50
2023-01-09T22:13:16.349Z,8.46
2023-01-09T22:15:45.167Z,8.47
2023-01-09T22:18:11.990Z,8.48
2023-01-09T22:20:38.771Z,8.44
2023-01-09T22:23:05.481Z,8.42
2023-01-09T22:25:32.327Z,8.42
2023-01-09T22:27:59.113Z,8.40
2023-01-09T22:30:25.910Z,8.38
2023-01-09T22:32:52.671Z,8.37
2023-01-09T22:35:19.442Z,8.38
2023-01-09T22:37:46.364Z,8.43
2023-01-09T22:40:13.463Z,8.42
2023-01-09T22:42:40.227Z,8.42
2023-01-09T22:45:07.726Z,8.41
2023-01-09T22:47:34.482Z,8.39
2023-01-09T22:50:01.545Z,8.39
2023-01-09T22:52:29.337Z,8.36
2023-01-09T22:54:56.175Z,8.32
2023-01-09T22:57:22.943Z,8.32
2023-01-09T22:59:52.821Z,8.29
2023-01-09T23:02:19.727Z,8.27
2023-01-09T23:04:46.559Z,8.26
2023-01-09T23:07:13.663Z,8.24
2023-01-09T23:09:40.534Z,8.25
2023-01-09T23:12:07.988Z,8.26
2023-01-09T23:14:36.772Z,8.25
2023-01-09T23:17:04.412Z,8.26
2023-01-09T23:19:32.775Z,8.27
2023-01-09T23:22:00.089Z,8.29
2023-01-09T23:24:27.701Z,8.29
2023-01-09T23:26:55.246Z,8.32
2023-01-09T23:29:22.369Z,8.32
2023-01-09T23:31:49.148Z,8.32
2023-01-09T23:34:17.201Z,8.31
2023-01-09T23:36:44.724Z,8.32
2023-01-09T23:39:11.565Z,8.33
2023-01-09T23:41:47.583Z,8.33
2023-01-09T23:44:14.343Z,8.33
2023-01-09T23:46:41.173Z,8.34
2023-01-09T23:49:08.348Z,8.35
2023-01-09T23:51:35.177Z,8.34
2023-01-09T23:54:01.933Z,8.34
2023-01-09T23:56:30.883Z,8.32
2023-01-09T23:58:58.133Z,8.32
